createdAt,value
2023-04-16T00:02:14.873Z,4.97
2023-04-16T00:04:42.299Z,5.85
2023-04-16T00:07:09.727Z,7.35
2023-04-16T00:09:36.929Z,14.10
2023-04-16T00:12:05.087Z,10.52
2023-04-16T00:14:32.258Z,10.48
2023-04-16T00:16:59.610Z,11.75
2023-04-16T00:19:26.998Z,7.72
2023-04-16T00:21:54.292Z,8.43
2023-04-16T00:24:21.427Z,7.32
2023-04-16T00:26:48.722Z,5.20
2023-04-16T00:29:15.899Z,7.63
2023-04-16T00:31:43.159Z,5.95
2023-04-16T00:34:10.514Z,8.77
2023-04-16T00:36:37.649Z,3.65
2023-04-16T00:39:05.602Z,6.63
2023-04-16T00:41:32.840Z,5.68
2023-04-16T00:44:00.096Z,6.93
2023-04-16T00:46:27.781Z,7.32
2023-04-16T00:48:56.446Z,4.30
2023-04-16T00:51:23.887Z,7.10
2023-04-16T00:53:51.152Z,6.10
2023-04-16T00:56:20.530Z,8.70
2023-04-16T00:58:49.472Z,6.30
2023-04-16T01:01:16.992Z,5.78
2023-04-16T01:03:48.033Z,5.82
2023-04-16T01:06:18.064Z,6.30
2023-04-16T01:08:46.970Z,4.72
2023-04-16T01:11:16.028Z,3.88
2023-04-16T01:13:43.577Z,4.15
2023-04-16T01:16:13.038Z,5.75
2023-04-16T01:18:40.270Z,5.88
2023-04-16T01:21:07.925Z,5.57
2023-04-16T01:23:35.169Z,3.67
2023-04-16T01:26:02.949Z,3.72
2023-04-16T01:28:30.395Z,8.63
2023-04-16T01:30:57.727Z,6.15
2023-04-16T01:33:35.871Z,6.25
2023-04-16T01:36:03.191Z,6.78
2023-04-16T01:38:30.368Z,7.00
2023-04-16T01:40:59.614Z,5.28
2023-04-16T01:43:26.947Z,5.78
2023-04-16T01:46:14.369Z,5.88
2023-04-16T01:48:42.059Z,8.38
2023-04-16T01:51:10.116Z,6.47
2023-04-16T01:53:37.642Z,4.18
2023-04-16T01:56:06.164Z,3.88
2023-04-16T01:58:34.282Z,4.60
2023-04-16T02:01:01.895Z,6.22
2023-04-16T02:03:29.383Z,5.13
2023-04-16T02:05:56.707Z,5.60
2023-04-16T02:08:24.129Z,3.70
2023-04-16T02:10:51.442Z,6.47
2023-04-16T02:13:18.724Z,5.85
2023-04-16T02:15:49.768Z,3.95
2023-04-16T02:18:22.539Z,5.93
2023-04-16T02:20:50.218Z,4.80
2023-04-16T02:23:18.505Z,7.38
2023-04-16T02:25:47.980Z,6.80
2023-04-16T02:28:17.226Z,6.88
2023-04-16T02:30:46.497Z,7.90
2023-04-16T02:33:16.001Z,7.03
2023-04-16T02:35:54.014Z,8.88
2023-04-16T02:38:21.569Z,6.43
2023-04-16T02:40:48.845Z,7.63
2023-04-16T02:43:17.216Z,9.48
2023-04-16T02:45:44.890Z,8.95
2023-04-16T02:48:12.166Z,11.23
2023-04-16T02:50:39.454Z,7.55
2023-04-16T02:53:07.838Z,7.25
2023-04-16T02:55:35.152Z,5.45
2023-04-16T02:58:02.344Z,6.30
2023-04-16T03:00:29.778Z,7.88
2023-04-16T03:02:57.302Z,5.70
2023-04-16T03:05:24.756Z,8.32
2023-04-16T03:07:56.783Z,6.45
2023-04-16T03:10:24.306Z,5.63
2023-04-16T03:12:51.702Z,6.10
2023-04-16T03:15:18.912Z,8.43
2023-04-16T03:17:46.096Z,7.82
2023-04-16T03:20:14.564Z,5.75
2023-04-16T03:22:42.005Z,8.77
2023-04-16T03:25:09.817Z,7.13
2023-04-16T03:27:37.218Z,6.63
2023-04-16T03:30:06.564Z,7.47
2023-04-16T03:32:36.136Z,7.00
2023-04-16T03:35:09.115Z,6.17
2023-04-16T03:37:37.418Z,5.00
2023-04-16T03:40:08.363Z,6.60
2023-04-16T03:42:35.645Z,6.07
2023-04-16T03:45:03.891Z,7.35
2023-04-16T03:47:32.281Z,6.10
2023-04-16T03:50:02.743Z,7.18
2023-04-16T03:52:30.048Z,4.97
2023-04-16T03:54:57.486Z,7.18
2023-04-16T03:57:27.579Z,6.10
2023-04-16T03:59:59.244Z,5.80
2023-04-16T04:02:29.981Z,7.78
2023-04-16T04:04:57.322Z,5.25
2023-04-16T04:07:24.632Z,6.78
2023-04-16T04:09:52.889Z,7.90
2023-04-16T04:12:20.078Z,7.05
2023-04-16T04:14:48.089Z,6.53
2023-04-16T04:17:15.634Z,5.32
2023-04-16T04:19:54.222Z,6.60
2023-04-16T04:22:28.433Z,4.70
2023-04-16T04:24:55.738Z,4.68
2023-04-16T04:27:23.391Z,6.32
2023-04-16T04:29:50.707Z,4.28
2023-04-16T04:32:18.033Z,4.00
2023-04-16T04:34:46.370Z,4.35
2023-04-16T04:37:13.719Z,3.67
2023-04-16T04:39:41.246Z,4.60
2023-04-16T04:42:09.358Z,4.05
2023-04-16T04:44:36.756Z,4.32
2023-04-16T04:47:03.984Z,2.80
2023-04-16T04:49:32.617Z,5.45
2023-04-16T04:51:59.955Z,5.15
2023-04-16T04:54:28.231Z,8.35
2023-04-16T04:56:56.645Z,4.20
2023-04-16T04:59:25.265Z,4.88
2023-04-16T05:01:52.960Z,3.20
2023-04-16T05:04:20.680Z,4.50
2023-04-16T05:06:47.989Z,3.05
2023-04-16T05:09:15.713Z,3.95
2023-04-16T05:11:43.280Z,2.33
2023-04-16T05:14:10.664Z,3.13
2023-04-16T05:16:38.507Z,4.82
2023-04-16T05:19:05.864Z,2.67
2023-04-16T05:21:34.057Z,3.75
2023-04-16T05:24:01.299Z,2.20
2023-04-16T05:26:28.530Z,2.88
2023-04-16T05:28:55.988Z,3.53
2023-04-16T05:31:23.283Z,2.72
2023-04-16T05:33:50.551Z,2.45
2023-04-16T05:36:17.741Z,3.70
2023-04-16T05:38:45.115Z,2.20
2023-04-16T05:41:12.400Z,4.30
2023-04-16T05:43:39.658Z,5.88
2023-04-16T05:46:06.988Z,1.60
2023-04-16T05:48:34.200Z,2.92
2023-04-16T05:51:02.812Z,1.42
2023-04-16T05:53:30.183Z,2.25
2023-04-16T05:55:57.500Z,3.70
2023-04-16T05:58:24.703Z,3.50
2023-04-16T06:00:51.968Z,0.70
2023-04-16T06:03:19.283Z,1.90
2023-04-16T06:05:46.596Z,2.63
2023-04-16T06:08:13.928Z,2.60
2023-04-16T06:10:41.238Z,1.73
2023-04-16T06:13:08.423Z,1.95
2023-04-16T06:15:35.806Z,1.20
2023-04-16T06:18:03.085Z,0.70
2023-04-16T06:20:30.713Z,0.60
2023-04-16T06:22:58.018Z,0.88
2023-04-16T06:25:25.505Z,1.58
2023-04-16T06:27:52.771Z,1.10
2023-04-16T06:30:20.273Z,1.25
2023-04-16T06:32:48.168Z,1.95
2023-04-16T06:35:15.533Z,1.25
2023-04-16T06:37:42.931Z,1.00
2023-04-16T06:40:10.922Z,1.92
2023-04-16T06:42:38.232Z,1.95
2023-04-16T06:45:06.321Z,8.20
2023-04-16T06:47:33.826Z,1.85
2023-04-16T06:50:01.311Z,4.00
2023-04-16T06:52:29.596Z,1.48
2023-04-16T06:54:57.347Z,3.97
2023-04-16T06:57:24.721Z,3.35
2023-04-16T06:59:51.985Z,0.50
2023-04-16T07:02:19.441Z,1.13
2023-04-16T07:04:46.764Z,0.60
2023-04-16T07:07:14.057Z,0.98
2023-04-16T07:09:41.463Z,0.40
2023-04-16T07:12:08.930Z,2.30
2023-04-16T07:14:36.335Z,3.50
2023-04-16T07:17:03.554Z,1.55
2023-04-16T07:19:32.796Z,1.02
2023-04-16T07:22:03.593Z,1.15
2023-04-16T07:24:31.250Z,1.13
2023-04-16T07:26:58.491Z,1.65
2023-04-16T07:29:25.805Z,2.33
2023-04-16T07:31:53.120Z,1.73
2023-04-16T07:34:20.573Z,2.67
2023-04-16T07:36:47.926Z,1.73
2023-04-16T07:39:15.225Z,1.70
2023-04-16T07:41:43.289Z,3.28
2023-04-16T07:44:10.966Z,3.17
2023-04-16T07:46:46.460Z,5.78
2023-04-16T07:49:15.612Z,3.17
2023-04-16T07:51:43.130Z,1.90
2023-04-16T07:54:11.158Z,1.98
2023-04-16T07:56:38.664Z,3.63
2023-04-16T07:59:19.094Z,1.50
2023-04-16T08:01:50.158Z,1.40
2023-04-16T08:04:23.266Z,1.13
2023-04-16T08:06:51.984Z,2.38
2023-04-16T08:09:26.611Z,1.45
2023-04-16T08:11:53.982Z,1.25
2023-04-16T08:14:21.373Z,1.20
2023-04-16T08:16:48.695Z,1.33
2023-04-16T08:19:16.198Z,1.27
2023-04-16T08:21:43.779Z,1.15
2023-04-16T08:24:11.735Z,2.13
2023-04-16T08:26:39.005Z,2.53
2023-04-16T08:29:06.280Z,2.45
2023-04-16T08:31:34.078Z,1.20
2023-04-16T08:34:01.992Z,0.90
2023-04-16T08:36:29.729Z,1.65
2023-04-16T08:38:57.012Z,1.42
2023-04-16T08:41:25.379Z,1.67
2023-04-16T08:43:56.422Z,3.15
2023-04-16T08:46:26.910Z,2.25
2023-04-16T08:48:58.269Z,3.53
2023-04-16T08:51:30.041Z,2.25
2023-04-16T08:54:14.996Z,2.10
2023-04-16T08:56:43.305Z,3.53
2023-04-16T08:59:10.879Z,1.35
2023-04-16T09:01:41.606Z,1.73
2023-04-16T09:04:09.753Z,1.38
2023-04-16T09:06:38.265Z,1.65
2023-04-16T09:09:06.618Z,2.13
2023-04-16T09:11:34.616Z,2.65
2023-04-16T09:14:02.439Z,2.03
2023-04-16T09:16:34.459Z,1.55
2023-04-16T09:19:01.915Z,1.65
2023-04-16T09:21:29.324Z,1.85
2023-04-16T09:23:56.954Z,2.67
2023-04-16T09:26:24.598Z,2.22
2023-04-16T09:28:51.958Z,2.58
2023-04-16T09:31:20.203Z,2.38
2023-04-16T09:34:09.738Z,2.88
2023-04-16T09:36:37.515Z,4.05
2023-04-16T09:39:04.991Z,2.95
2023-04-16T09:41:36.217Z,4.15
2023-04-16T09:44:05.565Z,2.75
2023-04-16T09:46:42.971Z,4.18
2023-04-16T09:49:11.086Z,2.58
2023-04-16T09:51:42.843Z,3.38
2023-04-16T09:54:10.726Z,2.63
2023-04-16T09:56:44.750Z,8.43
2023-04-16T09:59:22.940Z,2.90
2023-04-16T10:01:53.423Z,2.15
2023-04-16T10:04:51.775Z,1.83
2023-04-16T10:07:20.383Z,7.00
2023-04-16T10:09:49.265Z,3.95
2023-04-16T10:12:17.107Z,4.35
2023-04-16T10:14:44.698Z,3.03
2023-04-16T10:17:12.409Z,6.38
2023-04-16T10:19:40.573Z,2.40
2023-04-16T10:22:08.093Z,3.25
2023-04-16T10:24:35.831Z,6.90
2023-04-16T10:27:03.259Z,2.30
2023-04-16T10:29:31.994Z,2.40
2023-04-16T10:32:01.221Z,2.67
2023-04-16T10:34:31.415Z,3.10
2023-04-16T10:36:58.677Z,3.28
2023-04-16T10:39:29.726Z,2.20
2023-04-16T10:42:12.321Z,2.90
2023-04-16T10:44:43.641Z,2.50
2023-04-16T10:47:14.081Z,2.78
2023-04-16T10:49:42.733Z,5.03
2023-04-16T10:52:22.437Z,3.70
2023-04-16T10:54:50.129Z,1.50
2023-04-16T10:57:19.970Z,3.35
2023-04-16T10:59:49.554Z,3.20
2023-04-16T11:02:18.928Z,6.93
2023-04-16T11:04:49.097Z,1.90
2023-04-16T11:07:20.560Z,1.67
2023-04-16T11:10:05.478Z,1.40
2023-04-16T11:12:40.582Z,2.08
2023-04-16T11:15:10.345Z,3.30
2023-04-16T11:17:44.443Z,1.67
2023-04-16T11:20:23.532Z,1.85
2023-04-16T11:22:52.958Z,1.63
2023-04-16T11:25:34.230Z,1.38
2023-04-16T11:28:02.751Z,2.08
2023-04-16T11:30:36.045Z,4.25
2023-04-16T11:33:11.977Z,1.65
2023-04-16T11:35:40.277Z,1.80
2023-04-16T11:38:07.932Z,0.82
2023-04-16T11:40:36.377Z,1.55
2023-04-16T11:43:15.450Z,1.20
2023-04-16T11:46:07.525Z,1.20
2023-04-16T11:48:52.303Z,1.65
2023-04-16T11:51:20.762Z,3.13
2023-04-16T11:53:50.765Z,1.40
2023-04-16T11:56:30.235Z,1.40
2023-04-16T11:59:18.922Z,1.63
2023-04-16T12:01:52.733Z,2.65
2023-04-16T12:04:25.146Z,1.45
2023-04-16T12:07:13.561Z,1.15
2023-04-16T12:09:44.678Z,1.80
2023-04-16T12:12:32.668Z,1.58
2023-04-16T12:15:03.925Z,2.20
2023-04-16T12:17:33.723Z,2.85
2023-04-16T12:20:09.924Z,1.90
2023-04-16T12:22:40.163Z,1.20
2023-04-16T12:27:55.644Z,1.80
2023-04-16T12:30:26.152Z,1.67
2023-04-16T12:33:19.464Z,1.70
2023-04-16T12:35:47.170Z,1.23
2023-04-16T12:38:17.602Z,1.17
2023-04-16T12:40:45.266Z,1.40
2023-04-16T12:43:12.740Z,2.15
2023-04-16T12:45:40.875Z,1.95
2023-04-16T12:48:08.195Z,1.30
2023-04-16T12:50:35.599Z,1.48
2023-04-16T12:53:02.874Z,1.92
2023-04-16T12:55:30.565Z,1.13
2023-04-16T12:57:58.128Z,1.63
2023-04-16T13:00:25.491Z,1.63
2023-04-16T13:02:52.886Z,1.55
2023-04-16T13:05:20.518Z,6.88
2023-04-16T13:07:47.817Z,3.22
2023-04-16T13:10:15.056Z,2.78
2023-04-16T13:12:42.379Z,1.48
2023-04-16T13:15:10.627Z,4.40
2023-04-16T13:17:38.001Z,2.25
2023-04-16T13:20:05.945Z,3.80
2023-04-16T13:22:33.604Z,1.90
2023-04-16T13:25:00.941Z,4.18
2023-04-16T13:27:28.400Z,1.30
2023-04-16T13:29:55.928Z,1.00
2023-04-16T13:32:23.345Z,2.92
2023-04-16T13:34:50.902Z,1.83
2023-04-16T13:37:18.252Z,1.45
2023-04-16T13:39:46.083Z,2.35
2023-04-16T13:42:13.460Z,1.77
2023-04-16T13:44:41.166Z,1.92
2023-04-16T13:47:08.765Z,1.67
2023-04-16T13:49:36.371Z,3.45
2023-04-16T13:52:04.051Z,1.85
2023-04-16T13:54:31.337Z,1.58
2023-04-16T13:56:58.641Z,1.65
2023-04-16T13:59:26.601Z,4.07
2023-04-16T14:01:54.063Z,2.67
2023-04-16T14:04:22.552Z,1.92
2023-04-16T14:06:50.782Z,2.58
2023-04-16T14:09:18.086Z,1.75
2023-04-16T14:11:45.559Z,1.30
2023-04-16T14:14:12.929Z,2.55
2023-04-16T14:16:40.404Z,1.95
2023-04-16T14:19:07.803Z,2.45
2023-04-16T14:21:35.132Z,2.75
2023-04-16T14:24:03.164Z,1.10
2023-04-16T14:26:30.645Z,1.75
2023-04-16T14:28:57.837Z,1.35
2023-04-16T14:31:25.746Z,1.83
2023-04-16T14:33:53.174Z,3.15
2023-04-16T14:36:20.590Z,1.77
2023-04-16T14:38:48.694Z,2.10
2023-04-16T14:41:15.915Z,3.38
2023-04-16T14:43:44.403Z,2.58
2023-04-16T14:46:11.717Z,1.98
2023-04-16T14:48:38.929Z,9.13
2023-04-16T14:51:07.296Z,1.90
2023-04-16T14:53:36.267Z,2.30
2023-04-16T14:56:04.320Z,1.90
2023-04-16T14:58:32.100Z,1.95
2023-04-16T15:00:59.687Z,2.47
2023-04-16T15:03:27.510Z,2.25
2023-04-16T15:05:55.838Z,1.60
2023-04-16T15:08:24.462Z,1.70
2023-04-16T15:10:52.066Z,3.75
2023-04-16T15:13:19.573Z,2.65
2023-04-16T15:15:46.920Z,1.65
2023-04-16T15:18:14.269Z,1.13
2023-04-16T15:20:41.588Z,3.15
2023-04-16T15:23:08.829Z,1.25
2023-04-16T15:25:36.234Z,1.83
2023-04-16T15:28:03.528Z,1.50
2023-04-16T15:30:31.632Z,1.95
2023-04-16T15:32:58.950Z,1.33
2023-04-16T15:35:26.236Z,1.50
2023-04-16T15:37:53.971Z,2.83
2023-04-16T15:40:21.384Z,4.75
2023-04-16T15:42:48.943Z,2.22
2023-04-16T15:45:16.272Z,2.05
2023-04-16T15:47:45.474Z,2.20
2023-04-16T15:50:12.737Z,2.03
2023-04-16T15:52:40.437Z,2.25
2023-04-16T15:55:07.985Z,2.97
2023-04-16T15:57:35.908Z,2.58
2023-04-16T16:00:13.507Z,1.95
2023-04-16T16:02:42.082Z,3.95
2023-04-16T16:05:16.593Z,2.55
2023-04-16T16:07:44.092Z,2.28
2023-04-16T16:10:13.170Z,2.13
2023-04-16T16:12:41.547Z,2.17
2023-04-16T16:15:11.151Z,2.30
2023-04-16T16:17:39.337Z,2.08
2023-04-16T16:20:10.828Z,2.90
2023-04-16T16:22:39.174Z,2.55
2023-04-16T16:25:07.320Z,2.22
2023-04-16T16:27:36.202Z,3.47
2023-04-16T16:30:06.674Z,2.38
2023-04-16T16:32:34.170Z,2.47
2023-04-16T16:35:01.556Z,2.22
2023-04-16T16:37:29.439Z,2.20
2023-04-16T16:39:56.808Z,2.30
2023-04-16T16:42:24.190Z,3.97
2023-04-16T16:44:51.492Z,2.13
2023-04-16T16:47:18.905Z,1.77
2023-04-16T16:49:46.226Z,2.25
2023-04-16T16:52:13.499Z,1.92
2023-04-16T16:54:42.800Z,2.08
2023-04-16T16:57:10.086Z,2.72
2023-04-16T16:59:37.512Z,1.30
2023-04-16T17:02:04.786Z,4.75
2023-04-16T17:04:32.251Z,3.20
2023-04-16T17:06:59.537Z,3.28
2023-04-16T17:09:26.873Z,2.88
2023-04-16T17:11:54.170Z,2.97
2023-04-16T17:14:21.399Z,4.40
2023-04-16T17:16:50.065Z,3.97
2023-04-16T17:19:18.040Z,8.13
2023-04-16T17:21:45.592Z,6.22
2023-04-16T17:24:13.079Z,3.67
2023-04-16T17:26:41.182Z,3.70
2023-04-16T17:29:08.556Z,5.00
2023-04-16T17:31:36.219Z,3.90
2023-04-16T17:34:05.905Z,4.45
2023-04-16T17:36:33.372Z,6.47
2023-04-16T17:39:00.807Z,3.90
2023-04-16T17:41:28.084Z,5.45
2023-04-16T17:43:55.331Z,6.40
2023-04-16T17:46:22.756Z,7.85
2023-04-16T17:48:50.205Z,6.57
2023-04-16T17:51:17.617Z,5.60
2023-04-16T17:53:45.230Z,5.82
2023-04-16T17:56:14.100Z,6.68
2023-04-16T17:58:41.364Z,5.97
2023-04-16T18:01:08.861Z,4.82
2023-04-16T18:03:37.265Z,5.03
2023-04-16T18:06:04.847Z,5.35
2023-04-16T18:08:32.165Z,8.05
2023-04-16T18:10:59.502Z,5.75
2023-04-16T18:13:27.281Z,11.30
2023-04-16T18:15:54.719Z,5.15
2023-04-16T18:18:22.022Z,6.30
2023-04-16T18:20:49.240Z,8.40
2023-04-16T18:23:16.363Z,8.98
2023-04-16T18:25:44.572Z,6.45
2023-04-16T18:28:14.029Z,7.30
2023-04-16T18:30:41.953Z,9.20
2023-04-16T18:35:40.696Z,6.95
2023-04-16T18:38:08.096Z,10.93
2023-04-16T18:40:37.331Z,9.50
2023-04-16T18:43:04.983Z,10.57
2023-04-16T18:45:34.354Z,8.05
2023-04-16T18:48:04.262Z,9.38
2023-04-16T18:50:32.049Z,10.53
2023-04-16T18:52:59.393Z,10.27
2023-04-16T18:55:26.741Z,9.25
2023-04-16T18:57:55.218Z,12.80
2023-04-16T19:00:22.781Z,11.15
2023-04-16T19:02:50.225Z,10.55
2023-04-16T19:05:17.973Z,9.93
2023-04-16T19:07:45.905Z,9.82
2023-04-16T19:10:13.268Z,14.35
2023-04-16T19:12:40.967Z,10.35
2023-04-16T19:15:08.773Z,10.30
2023-04-16T19:17:36.321Z,13.45
2023-04-16T19:20:08.146Z,12.57
2023-04-16T19:22:35.618Z,13.82
2023-04-16T19:25:03.151Z,13.93
2023-04-16T19:27:30.535Z,12.20
2023-04-16T19:29:58.157Z,13.32
2023-04-16T19:32:25.510Z,14.95
2023-04-16T19:34:52.884Z,13.05
2023-04-16T19:37:20.185Z,15.07
2023-04-16T19:39:47.739Z,15.15
2023-04-16T19:42:15.751Z,17.40
2023-04-16T19:44:42.966Z,12.60
2023-04-16T19:47:10.722Z,13.95
2023-04-16T19:49:38.456Z,16.02
2023-04-16T19:52:05.751Z,15.13
2023-04-16T19:54:34.883Z,18.33
2023-04-16T19:57:02.608Z,14.80
2023-04-16T19:59:32.249Z,16.83
2023-04-16T20:01:59.713Z,14.50
2023-04-16T20:04:27.358Z,15.77
2023-04-16T20:06:54.782Z,19.58
2023-04-16T20:09:22.269Z,17.70
2023-04-16T20:11:49.494Z,16.58
2023-04-16T20:14:17.328Z,18.35
2023-04-16T20:16:44.611Z,14.88
2023-04-16T20:19:18.698Z,16.75
2023-04-16T20:21:46.228Z,20.20
2023-04-16T20:24:15.551Z,16.30
2023-04-16T20:26:42.881Z,16.20
2023-04-16T20:29:10.562Z,18.45
2023-04-16T20:31:38.077Z,26.55
2023-04-16T20:34:05.441Z,25.60
2023-04-16T20:36:33.172Z,18.73
2023-04-16T20:39:02.363Z,21.88
2023-04-16T20:41:30.413Z,22.27
2023-04-16T20:43:58.016Z,25.15
2023-04-16T20:46:26.060Z,18.98
2023-04-16T20:48:53.515Z,20.25
2023-04-16T20:51:21.730Z,23.70
2023-04-16T20:53:52.185Z,19.33
2023-04-16T20:56:19.683Z,21.77
2023-04-16T20:58:47.029Z,22.60
2023-04-16T21:01:14.442Z,23.80
2023-04-16T21:03:41.809Z,29.15
2023-04-16T21:06:09.261Z,19.70
2023-04-16T21:08:36.967Z,23.55
2023-04-16T21:11:04.525Z,23.65
2023-04-16T21:13:32.017Z,24.52
2023-04-16T21:15:59.575Z,24.00
2023-04-16T21:18:27.245Z,21.55
2023-04-16T21:20:55.685Z,21.80
2023-04-16T21:23:23.105Z,24.83
2023-04-16T21:25:50.509Z,24.55
2023-04-16T21:28:17.934Z,21.92
2023-04-16T21:30:45.442Z,25.77
2023-04-16T21:33:14.791Z,24.80
2023-04-16T21:35:42.042Z,26.73
2023-04-16T21:38:09.423Z,27.65
2023-04-16T21:40:36.663Z,27.48
2023-04-16T21:43:03.974Z,23.33
2023-04-16T21:45:31.523Z,26.13
2023-04-16T21:47:59.018Z,23.52
2023-04-16T21:50:26.539Z,27.10
2023-04-16T21:52:54.879Z,23.40
2023-04-16T21:55:22.228Z,27.75
2023-04-16T21:57:49.418Z,23.60
2023-04-16T22:00:18.431Z,24.75
2023-04-16T22:02:46.014Z,25.98
2023-04-16T22:05:13.432Z,25.75
2023-04-16T22:07:40.792Z,24.13
2023-04-16T22:10:10.012Z,26.67
2023-04-16T22:12:37.950Z,24.70
2023-04-16T22:15:07.292Z,22.25
2023-04-16T22:17:34.882Z,26.95
2023-04-16T22:20:07.104Z,26.08
2023-04-16T22:22:34.847Z,26.10
2023-04-16T22:25:02.358Z,25.75
2023-04-16T22:27:29.905Z,27.38
2023-04-16T22:29:57.128Z,26.40
2023-04-16T22:32:24.519Z,32.20
2023-04-16T22:34:52.391Z,30.20
2023-04-16T22:37:19.721Z,27.40
2023-04-16T22:39:46.995Z,29.48
2023-04-16T22:42:14.284Z,31.88
2023-04-16T22:44:41.488Z,29.00
2023-04-16T22:47:08.809Z,30.05
2023-04-16T22:49:36.307Z,29.23
2023-04-16T22:52:03.662Z,30.35
2023-04-16T22:54:31.974Z,29.63
2023-04-16T22:56:59.442Z,28.77
2023-04-16T22:59:26.674Z,26.67
2023-04-16T23:01:54.061Z,32.05
2023-04-16T23:04:21.454Z,26.10
2023-04-16T23:06:48.817Z,27.15
2023-04-16T23:09:16.032Z,27.02
2023-04-16T23:11:43.306Z,30.38
2023-04-16T23:14:10.455Z,31.30
2023-04-16T23:16:37.659Z,30.67
2023-04-16T23:19:04.887Z,31.42
2023-04-16T23:21:32.566Z,28.92
2023-04-16T23:23:59.705Z,29.65
2023-04-16T23:26:27.020Z,31.60
2023-04-16T23:28:54.185Z,32.88
2023-04-16T23:31:21.497Z,29.10
2023-04-16T23:33:48.707Z,29.92
2023-04-16T23:36:16.517Z,31.67
2023-04-16T23:38:43.692Z,33.42
2023-04-16T23:41:10.934Z,33.65
2023-04-16T23:43:40.199Z,33.88
2023-04-16T23:46:07.637Z,34.35
2023-04-16T23:48:34.928Z,35.45
2023-04-16T23:51:02.149Z,34.65
2023-04-16T23:53:29.370Z,28.48
2023-04-16T23:55:56.529Z,31.33
2023-04-16T23:58:24.462Z,39.08
